Time;durP1;ratioP1;P1;durP2;ratioP2;P2;SDS_P1;SDS_P2;PMS_P1;PMS_P2;Temp;Humidity;BMP_temperature;BMP_pressure;BME280_temperature;BME280_humidity;BME280_pressure;Samples;Min_cycle;Max_cycle;Signal;HPM_P1;HPM_P2
2022/08/24 00:01:14;;;;;;;8.38;3.78;;;;;;;;;;4952745;29;20035;-78
2022/08/24 00:03:41;;;;;;;4.60;3.42;;;;;;;;;;4952787;28;20027;-75
2022/08/24 00:06:14;;;;;;;5.38;3.38;;;;;;;;;;4953024;29;20031;-75
2022/08/24 00:08:41;;;;;;;6.10;4.15;;;;;;;;;;4951425;29;20121;-75
2022/08/24 00:11:08;;;;;;;4.75;3.92;;;;;;;;;;4952795;29;20031;-74
2022/08/24 00:13:34;;;;;;;6.25;3.78;;;;;;;;;;4953237;29;20032;-75
2022/08/24 00:16:01;;;;;;;7.50;3.85;;;;;;;;;;4934715;29;20106;-75
2022/08/24 00:18:27;;;;;;;6.72;4.10;;;;;;;;;;4953117;29;20035;-75
2022/08/24 00:20:53;;;;;;;7.07;3.92;;;;;;;;;;4953139;29;20023;-75
2022/08/24 00:23:19;;;;;;;7.15;3.70;;;;;;;;;;4952713;29;20035;-75
2022/08/24 00:25:45;;;;;;;5.88;3.80;;;;;;;;;;4952456;29;20431;-76
2022/08/24 00:28:11;;;;;;;7.32;4.60;;;;;;;;;;4935574;29;20122;-75
2022/08/24 00:30:37;;;;;;;9.10;4.05;;;;;;;;;;4952340;29;20037;-76
2022/08/24 00:33:03;;;;;;;6.68;3.80;;;;;;;;;;4932001;29;20119;-75
2022/08/24 00:35:29;;;;;;;6.63;3.80;;;;;;;;;;4952473;29;20056;-74
2022/08/24 00:37:56;;;;;;;7.68;4.25;;;;;;;;;;4952863;29;20568;-75
2022/08/24 00:40:35;;;;;;;6.20;4.18;;;;;;;;;;4952544;29;20035;-76
2022/08/24 00:43:03;;;;;;;7.57;3.90;;;;;;;;;;4952161;29;20109;-76
2022/08/24 00:45:41;;;;;;;7.43;4.53;;;;;;;;;;4935323;29;20055;-75
2022/08/24 00:48:20;;;;;;;6.88;4.20;;;;;;;;;;4952525;29;20047;-75
2022/08/24 00:50:56;;;;;;;7.20;4.80;;;;;;;;;;4952091;29;20485;-75
2022/08/24 00:53:32;;;;;;;8.52;4.28;;;;;;;;;;4934502;29;20035;-75
2022/08/24 00:56:02;;;;;;;5.55;4.10;;;;;;;;;;4951553;29;20043;-75
2022/08/24 00:58:37;;;;;;;6.25;4.28;;;;;;;;;;4935247;29;20055;-75
2022/08/24 01:01:06;;;;;;;6.00;4.35;;;;;;;;;;4933993;29;20043;-75
2022/08/24 01:03:33;;;;;;;11.90;4.88;;;;;;;;;;4952038;28;20372;-75
2022/08/24 01:05:59;;;;;;;6.68;4.85;;;;;;;;;;4952653;29;20036;-75
2022/08/24 01:08:25;;;;;;;5.60;4.47;;;;;;;;;;4952177;29;20368;-75
2022/08/24 01:10:55;;;;;;;5.85;4.43;;;;;;;;;;4934922;29;20042;-75
2022/08/24 01:13:23;;;;;;;7.30;4.45;;;;;;;;;;4952019;29;20058;-75
2022/08/24 01:15:52;;;;;;;5.95;4.15;;;;;;;;;;4934491;29;20035;-76
2022/08/24 01:21:28;;;;;;;11.27;4.70;;;;;;;;;;4935055;29;20043;-75
2022/08/24 01:23:58;;;;;;;8.65;4.72;;;;;;;;;;4934749;29;20071;-75
2022/08/24 01:26:35;;;;;;;7.40;4.40;;;;;;;;;;4918776;28;20050;-75
2022/08/24 01:29:07;;;;;;;5.78;4.20;;;;;;;;;;4941037;29;20035;-75
2022/08/24 01:31:33;;;;;;;8.38;4.82;;;;;;;;;;4941444;29;20090;-75
2022/08/24 01:33:59;;;;;;;8.88;4.68;;;;;;;;;;4957002;28;20423;-75
2022/08/24 01:36:40;;;;;;;6.22;4.22;;;;;;;;;;4941114;29;20039;-76
2022/08/24 01:39:22;;;;;;;7.38;4.50;;;;;;;;;;4958538;29;20122;-74
2022/08/24 01:41:49;;;;;;;8.18;4.30;;;;;;;;;;4940321;29;20066;-76
2022/08/24 01:44:16;;;;;;;6.28;4.90;;;;;;;;;;4957713;28;20038;-75
2022/08/24 01:46:51;;;;;;;6.70;5.20;;;;;;;;;;4940855;29;20031;-75
2022/08/24 01:49:18;;;;;;;10.48;5.38;;;;;;;;;;4940338;29;20554;-75
2022/08/24 01:51:45;;;;;;;5.93;4.80;;;;;;;;;;4941424;29;20070;-75
2022/08/24 01:54:12;;;;;;;7.60;4.80;;;;;;;;;;4942591;29;20067;-75
2022/08/24 01:56:38;;;;;;;8.25;4.68;;;;;;;;;;4959501;29;20035;-75
2022/08/24 01:59:06;;;;;;;8.88;5.03;;;;;;;;;;4939837;29;20371;-75
2022/08/24 02:01:39;;;;;;;6.82;4.88;;;;;;;;;;4957530;29;20070;-75
2022/08/24 02:04:07;;;;;;;5.88;4.90;;;;;;;;;;4940061;29;20412;-75
2022/08/24 02:06:34;;;;;;;7.18;5.63;;;;;;;;;;4940389;29;20031;-75
2022/08/24 02:09:01;;;;;;;7.88;4.50;;;;;;;;;;4940223;29;20070;-75
2022/08/24 02:11:28;;;;;;;8.27;4.50;;;;;;;;;;4924115;29;20023;-76
2022/08/24 02:13:54;;;;;;;7.95;4.90;;;;;;;;;;4957662;28;20509;-75
2022/08/24 02:16:20;;;;;;;11.65;4.40;;;;;;;;;;4940428;29;20031;-74
2022/08/24 02:18:46;;;;;;;7.03;4.13;;;;;;;;;;4940567;29;20555;-74
2022/08/24 02:21:13;;;;;;;7.03;4.28;;;;;;;;;;4940346;29;20126;-75
2022/08/24 02:23:40;;;;;;;7.40;3.90;;;;;;;;;;4939606;29;20199;-74
2022/08/24 02:26:08;;;;;;;5.68;3.95;;;;;;;;;;4940908;29;20029;-75
2022/08/24 02:28:35;;;;;;;6.90;3.67;;;;;;;;;;4940216;29;20476;-75
2022/08/24 02:31:04;;;;;;;6.45;3.65;;;;;;;;;;4957562;28;20090;-74
2022/08/24 02:33:34;;;;;;;5.70;3.30;;;;;;;;;;4940564;29;20035;-74
2022/08/24 02:36:01;;;;;;;5.18;3.00;;;;;;;;;;4940508;29;20055;-74
2022/08/24 02:38:28;;;;;;;6.57;3.33;;;;;;;;;;4939280;29;20047;-75
2022/08/24 02:40:55;;;;;;;4.75;3.22;;;;;;;;;;4937618;29;20410;-74
2022/08/24 02:43:21;;;;;;;5.50;3.40;;;;;;;;;;4937104;29;20170;-75
2022/08/24 02:45:47;;;;;;;8.57;3.42;;;;;;;;;;4937146;29;20143;-75
2022/08/24 02:48:13;;;;;;;5.07;3.40;;;;;;;;;;4937164;29;20107;-75
2022/08/24 02:50:42;;;;;;;3.97;2.85;;;;;;;;;;4936679;29;20031;-75
2022/08/24 02:53:09;;;;;;;5.70;3.08;;;;;;;;;;4937610;29;20109;-75
2022/08/24 02:55:38;;;;;;;3.60;3.13;;;;;;;;;;4935802;29;20054;-74
2022/08/24 02:58:04;;;;;;;7.68;3.03;;;;;;;;;;4932690;29;20043;-76
2022/08/24 03:00:30;;;;;;;3.78;2.83;;;;;;;;;;4954435;29;20031;-75
2022/08/24 03:02:56;;;;;;;5.97;3.40;;;;;;;;;;4936524;29;20043;-74
2022/08/24 03:05:24;;;;;;;6.18;3.17;;;;;;;;;;4937076;29;20070;-75
2022/08/24 03:07:51;;;;;;;7.68;3.80;;;;;;;;;;4936913;29;20471;-75
2022/08/24 03:10:17;;;;;;;10.02;4.28;;;;;;;;;;4936483;29;20039;-75
2022/08/24 03:12:43;;;;;;;7.53;4.40;;;;;;;;;;4936576;29;20036;-75
2022/08/24 03:15:11;;;;;;;10.75;5.55;;;;;;;;;;4936736;29;20386;-75
2022/08/24 03:17:37;;;;;;;8.57;5.50;;;;;;;;;;4933434;29;20027;-75
2022/08/24 03:20:09;;;;;;;8.63;5.97;;;;;;;;;;4936787;29;20035;-74
2022/08/24 03:22:35;;;;;;;8.73;5.47;;;;;;;;;;4935828;29;20406;-76
2022/08/24 03:25:01;;;;;;;9.88;5.80;;;;;;;;;;4953132;29;20434;-76
2022/08/24 03:27:27;;;;;;;8.90;5.30;;;;;;;;;;4936409;29;20039;-75
2022/08/24 03:29:53;;;;;;;7.70;5.60;;;;;;;;;;4936210;29;20023;-75
2022/08/24 03:32:19;;;;;;;9.85;5.85;;;;;;;;;;4935369;29;20114;-75
2022/08/24 03:34:45;;;;;;;7.85;5.50;;;;;;;;;;4934889;29;20113;-75
2022/08/24 03:37:11;;;;;;;7.85;5.63;;;;;;;;;;4933833;29;20039;-75
2022/08/24 03:39:38;;;;;;;9.45;6.03;;;;;;;;;;4936470;29;20035;-75
2022/08/24 03:42:04;;;;;;;8.75;5.18;;;;;;;;;;4935798;29;20039;-75
2022/08/24 03:44:30;;;;;;;6.30;4.97;;;;;;;;;;4936423;29;20047;-75
2022/08/24 03:46:56;;;;;;;8.07;5.20;;;;;;;;;;4920154;29;20139;-76
2022/08/24 03:49:24;;;;;;;9.75;5.50;;;;;;;;;;4934010;29;20086;-75
2022/08/24 03:51:51;;;;;;;7.18;5.07;;;;;;;;;;4935014;29;20039;-75
2022/08/24 03:54:21;;;;;;;11.48;5.90;;;;;;;;;;4935925;29;20086;-76
2022/08/24 03:56:47;;;;;;;9.02;5.00;;;;;;;;;;4935993;29;20140;-75
2022/08/24 03:59:13;;;;;;;8.25;4.40;;;;;;;;;;4936177;29;20083;-76
2022/08/24 04:01:42;;;;;;;7.93;5.00;;;;;;;;;;4934894;29;20064;-75
2022/08/24 04:04:08;;;;;;;6.68;4.82;;;;;;;;;;4952013;29;20028;-75
2022/08/24 04:06:36;;;;;;;6.38;4.57;;;;;;;;;;4953057;29;20035;-73
2022/08/24 04:09:04;;;;;;;8.60;4.85;;;;;;;;;;4933421;29;20497;-75
2022/08/24 04:11:33;;;;;;;9.80;4.82;;;;;;;;;;4952704;29;20387;-75
2022/08/24 04:13:59;;;;;;;8.77;4.72;;;;;;;;;;4953130;29;20039;-77
2022/08/24 04:16:27;;;;;;;11.00;5.32;;;;;;;;;;4934705;29;20130;-75
2022/08/24 04:19:03;;;;;;;7.45;4.72;;;;;;;;;;4935674;29;20027;-75
2022/08/24 04:21:32;;;;;;;8.75;5.05;;;;;;;;;;4936983;29;20043;-75
2022/08/24 04:23:59;;;;;;;6.40;4.38;;;;;;;;;;4954997;29;20059;-76
2022/08/24 04:26:27;;;;;;;6.78;4.28;;;;;;;;;;4938234;29;20042;-75
2022/08/24 04:28:54;;;;;;;6.70;4.55;;;;;;;;;;4922265;29;20027;-76
2022/08/24 04:31:20;;;;;;;7.80;4.55;;;;;;;;;;4937903;29;20035;-75
2022/08/24 04:33:51;;;;;;;10.73;4.78;;;;;;;;;;4937660;29;20033;-75
2022/08/24 04:36:20;;;;;;;9.30;5.43;;;;;;;;;;4937732;29;20050;-76
2022/08/24 04:38:47;;;;;;;8.63;4.85;;;;;;;;;;4938280;29;20034;-75
2022/08/24 04:41:32;;;;;;;10.50;5.53;;;;;;;;;;4955213;29;20476;-75
2022/08/24 04:44:00;;;;;;;12.55;5.20;;;;;;;;;;4937549;29;20031;-75
2022/08/24 04:46:27;;;;;;;9.90;4.60;;;;;;;;;;4937734;29;20035;-76
2022/08/24 04:48:54;;;;;;;7.15;4.50;;;;;;;;;;4937344;29;20035;-75
2022/08/24 04:51:20;;;;;;;13.98;5.40;;;;;;;;;;4936962;29;20031;-75
2022/08/24 04:53:47;;;;;;;10.88;5.43;;;;;;;;;;4936956;29;20042;-75
2022/08/24 04:56:18;;;;;;;8.73;5.25;;;;;;;;;;4937516;29;20031;-75
2022/08/24 04:58:46;;;;;;;10.15;5.28;;;;;;;;;;4937277;29;20058;-74
2022/08/24 05:01:15;;;;;;;8.27;5.10;;;;;;;;;;4937456;28;20035;-75
2022/08/24 05:03:44;;;;;;;10.32;4.53;;;;;;;;;;4937368;29;20039;-74
2022/08/24 05:06:12;;;;;;;7.32;4.30;;;;;;;;;;4937156;29;20038;-75
2022/08/24 05:08:38;;;;;;;8.48;4.00;;;;;;;;;;4937344;29;20562;-76
2022/08/24 05:11:07;;;;;;;5.72;4.05;;;;;;;;;;4954216;29;20027;-75
2022/08/24 05:13:35;;;;;;;15.13;4.28;;;;;;;;;;4935753;29;20047;-75
2022/08/24 05:16:05;;;;;;;5.65;4.20;;;;;;;;;;4937290;29;20023;-76
2022/08/24 05:18:32;;;;;;;7.75;4.45;;;;;;;;;;4937294;29;20042;-75
2022/08/24 05:20:58;;;;;;;7.88;3.72;;;;;;;;;;4937216;29;20039;-76
2022/08/24 05:23:25;;;;;;;10.35;3.65;;;;;;;;;;4955029;28;20039;-75
2022/08/24 05:26:01;;;;;;;4.55;3.47;;;;;;;;;;4937390;29;20175;-75
2022/08/24 05:28:28;;;;;;;10.52;4.22;;;;;;;;;;4937140;29;20098;-75
2022/08/24 05:30:53;;;;;;;7.50;4.15;;;;;;;;;;4937675;29;20032;-74
2022/08/24 05:33:19;;;;;;;8.77;4.05;;;;;;;;;;4954447;28;20096;-75
2022/08/24 05:35:45;;;;;;;7.80;3.90;;;;;;;;;;4937082;29;20053;-76
2022/08/24 05:38:12;;;;;;;6.57;3.80;;;;;;;;;;4936561;29;20517;-75
2022/08/24 05:40:38;;;;;;;10.35;4.32;;;;;;;;;;4935560;29;20111;-74
2022/08/24 05:43:04;;;;;;;5.85;4.03;;;;;;;;;;4935530;29;20038;-76
2022/08/24 05:45:31;;;;;;;9.32;4.68;;;;;;;;;;4935556;29;20387;-76
2022/08/24 05:47:57;;;;;;;7.43;4.30;;;;;;;;;;4936929;29;20434;-76
2022/08/24 05:50:41;;;;;;;9.45;3.78;;;;;;;;;;4953949;29;20394;-76
2022/08/24 05:53:07;;;;;;;6.40;3.92;;;;;;;;;;4936034;29;20438;-76
2022/08/24 05:55:37;;;;;;;10.23;3.97;;;;;;;;;;4936429;29;20114;-74
2022/08/24 05:58:03;;;;;;;6.93;4.03;;;;;;;;;;4936554;29;20043;-74
2022/08/24 06:00:32;;;;;;;8.48;4.28;;;;;;;;;;4921247;29;20394;-75
2022/08/24 06:02:59;;;;;;;10.70;4.50;;;;;;;;;;4920725;29;20043;-75
2022/08/24 06:05:25;;;;;;;13.23;5.30;;;;;;;;;;4936671;29;20034;-74
2022/08/24 06:07:51;;;;;;;12.82;6.85;;;;;;;;;;4953793;29;20086;-75
2022/08/24 06:10:17;;;;;;;10.98;4.78;;;;;;;;;;4936742;29;20058;-76
2022/08/24 06:12:45;;;;;;;8.95;4.85;;;;;;;;;;4953715;28;20027;-76
2022/08/24 06:15:12;;;;;;;7.45;4.93;;;;;;;;;;4939168;29;20035;-75
2022/08/24 06:17:38;;;;;;;14.98;4.40;;;;;;;;;;4924359;29;20374;-75
2022/08/24 06:20:06;;;;;;;8.25;4.72;;;;;;;;;;4939791;29;20046;-76
2022/08/24 06:22:32;;;;;;;12.55;5.05;;;;;;;;;;4939806;29;20050;-75
2022/08/24 06:27:44;;;;;;;12.32;5.57;;;;;;;;;;4942592;29;20043;-74
2022/08/24 06:30:10;;;;;;;11.02;6.32;;;;;;;;;;4956753;29;20032;-75
2022/08/24 06:32:59;;;;;;;7.68;5.40;;;;;;;;;;4938227;29;20098;-75
2022/08/24 06:35:31;;;;;;;13.13;6.20;;;;;;;;;;4939987;29;20039;-76
2022/08/24 06:37:58;;;;;;;9.15;4.90;;;;;;;;;;4940078;29;20102;-78
2022/08/24 06:40:25;;;;;;;8.50;5.25;;;;;;;;;;4940201;29;20424;-80
2022/08/24 06:42:51;;;;;;;11.50;4.85;;;;;;;;;;4940288;29;20035;-79
2022/08/24 06:45:43;;;;;;;11.65;5.20;;;;;;;;;;4954666;29;20406;-77
2022/08/24 06:48:10;;;;;;;14.07;6.65;;;;;;;;;;4940043;29;20035;-76
2022/08/24 06:50:38;;;;;;;9.98;6.10;;;;;;;;;;4940086;29;20402;-74
2022/08/24 06:53:04;;;;;;;11.30;6.03;;;;;;;;;;4941574;28;20376;-75
2022/08/24 06:55:32;;;;;;;7.50;5.32;;;;;;;;;;4958857;28;20467;-77
2022/08/24 06:57:58;;;;;;;9.00;5.43;;;;;;;;;;4958927;28;20053;-77
2022/08/24 07:00:24;;;;;;;7.90;5.32;;;;;;;;;;4946586;29;20090;-76
2022/08/24 07:02:51;;;;;;;15.98;6.82;;;;;;;;;;4944429;28;20109;-78
2022/08/24 07:05:17;;;;;;;7.38;5.25;;;;;;;;;;4939130;29;20075;-78
2022/08/24 07:07:56;;;;;;;7.82;5.13;;;;;;;;;;4956704;29;20533;-77
2022/08/24 07:10:23;;;;;;;11.27;4.53;;;;;;;;;;4933128;29;20035;-75
2022/08/24 07:12:50;;;;;;;6.43;4.13;;;;;;;;;;4939076;28;20035;-77
2022/08/24 07:15:18;;;;;;;6.53;4.45;;;;;;;;;;4938945;29;20110;-76
2022/08/24 07:17:54;;;;;;;6.80;4.63;;;;;;;;;;4935733;28;20031;-80
2022/08/24 07:20:20;;;;;;;8.50;4.50;;;;;;;;;;4949968;28;20035;-78
2022/08/24 07:23:05;;;;;;;7.03;4.43;;;;;;;;;;4935731;29;20034;-78
2022/08/24 07:25:32;;;;;;;6.60;4.00;;;;;;;;;;4937694;29;20210;-77
2022/08/24 07:28:01;;;;;;;6.47;3.95;;;;;;;;;;4942003;28;20120;-77
2022/08/24 07:30:27;;;;;;;6.82;4.47;;;;;;;;;;4937367;29;20087;-77
2022/08/24 07:32:56;;;;;;;7.75;4.10;;;;;;;;;;4937618;28;20090;-78
2022/08/24 07:35:27;;;;;;;7.45;4.50;;;;;;;;;;4934607;29;20039;-81
2022/08/24 07:37:55;;;;;;;6.53;4.47;;;;;;;;;;4921456;29;20505;-82
2022/08/24 07:40:22;;;;;;;11.02;4.47;;;;;;;;;;4937253;29;20023;-78
2022/08/24 07:42:49;;;;;;;8.82;4.40;;;;;;;;;;4937769;28;20055;-80
2022/08/24 07:45:15;;;;;;;8.95;4.40;;;;;;;;;;4933459;28;20054;-78
2022/08/24 07:47:45;;;;;;;7.38;4.50;;;;;;;;;;4951027;28;20334;-78
2022/08/24 07:50:36;;;;;;;7.03;4.22;;;;;;;;;;4924603;29;20035;-77
2022/08/24 07:53:02;;;;;;;6.80;4.68;;;;;;;;;;4938266;29;20035;-80
2022/08/24 07:55:28;;;;;;;6.63;4.50;;;;;;;;;;4936197;29;20057;-80
2022/08/24 07:57:54;;;;;;;6.68;4.43;;;;;;;;;;4936601;29;20079;-77
2022/08/24 08:00:21;;;;;;;9.82;5.18;;;;;;;;;;4937027;29;20054;-77
2022/08/24 08:02:52;;;;;;;6.45;4.85;;;;;;;;;;4935045;29;20502;-77
2022/08/24 08:05:21;;;;;;;7.32;4.85;;;;;;;;;;4946273;28;20031;-77
2022/08/24 08:07:51;;;;;;;6.25;4.82;;;;;;;;;;4955542;28;20678;-76
2022/08/24 08:10:18;;;;;;;8.55;5.15;;;;;;;;;;4955212;28;20047;-77
2022/08/24 08:12:45;;;;;;;13.73;5.40;;;;;;;;;;4925656;29;20030;-79
2022/08/24 08:15:11;;;;;;;10.50;5.60;;;;;;;;;;4937087;29;20472;-78
2022/08/24 08:17:45;;;;;;;12.80;5.65;;;;;;;;;;4936417;29;20098;-79
2022/08/24 08:20:12;;;;;;;8.77;5.43;;;;;;;;;;4937066;29;20125;-79
2022/08/24 08:25:51;;;;;;;9.83;5.30;;;;;;;;;;4946883;29;20141;-79
2022/08/24 08:28:24;;;;;;;9.10;5.77;;;;;;;;;;4936033;29;20482;-77
2022/08/24 08:30:52;;;;;;;11.25;6.07;;;;;;;;;;4953821;29;20041;-78
2022/08/24 08:33:18;;;;;;;11.68;5.60;;;;;;;;;;4935812;29;20122;-79
2022/08/24 08:35:44;;;;;;;10.10;5.75;;;;;;;;;;4937137;29;20043;-78
2022/08/24 08:38:11;;;;;;;12.52;4.93;;;;;;;;;;4936552;29;20031;-77
2022/08/24 08:41:07;;;;;;;9.60;5.93;;;;;;;;;;4937739;29;20071;-77
2022/08/24 08:43:43;;;;;;;16.88;6.88;;;;;;;;;;4932282;29;20035;-79
2022/08/24 08:46:26;;;;;;;9.93;7.07;;;;;;;;;;4953671;29;20067;-79
2022/08/24 08:50:05;;;;;;;13.43;6.65;;;;;;;;;;4943888;29;20057;-77
2022/08/24 08:52:52;;;;;;;7.82;5.90;;;;;;;;;;4936338;29;20031;-77
2022/08/24 08:55:29;;;;;;;9.32;6.20;;;;;;;;;;4935493;29;20046;-76
2022/08/24 08:58:35;;;;;;;8.93;7.20;;;;;;;;;;4935659;29;20044;-76
2022/08/24 09:01:10;;;;;;;;;;;;;;;;;;4953776;29;20042;-80
2022/08/24 09:03:52;;;;;;;12.05;7.38;;;;;;;;;;4951445;28;19945;-79
2022/08/24 09:07:11;;;;;;;10.55;6.88;;;;;;;;;;4944215;29;20050;-77
2022/08/24 09:09:53;;;;;;;9.85;8.02;;;;;;;;;;4935218;29;20122;-79
2022/08/24 09:12:56;;;;;;;9.82;7.63;;;;;;;;;;4950693;29;20047;-78
2022/08/24 09:15:35;;;;;;;9.30;7.30;;;;;;;;;;4952084;29;20114;-80
2022/08/24 09:18:23;;;;;;;11.13;7.47;;;;;;;;;;4952158;29;20067;-78
2022/08/24 09:20:58;;;;;;;8.63;6.32;;;;;;;;;;4915265;29;20046;-79
2022/08/24 09:23:35;;;;;;;9.88;7.20;;;;;;;;;;4932480;29;20036;-79
2022/08/24 09:26:19;;;;;;;9.93;7.55;;;;;;;;;;4931931;29;20046;-77
2022/08/24 09:28:53;;;;;;;8.90;6.78;;;;;;;;;;4914696;29;20349;-78
2022/08/24 09:31:47;;;;;;;10.65;6.97;;;;;;;;;;4932008;29;20115;-80
2022/08/24 09:34:16;;;;;;;7.85;6.80;;;;;;;;;;4948153;29;20039;-80
2022/08/24 09:36:53;;;;;;;12.73;7.43;;;;;;;;;;4951663;29;20604;-80
2022/08/24 09:39:34;;;;;;;7.53;6.13;;;;;;;;;;4951689;29;20031;-82
2022/08/24 09:42:05;;;;;;;10.93;7.00;;;;;;;;;;4952834;29;20512;-79
2022/08/24 09:45:09;;;;;;;9.43;8.35;;;;;;;;;;4953037;29;20042;-82
2022/08/24 09:48:07;;;;;;;11.65;8.40;;;;;;;;;;4949367;28;20386;-76
2022/08/24 09:51:12;;;;;;;11.30;7.50;;;;;;;;;;4953048;29;20031;-76
2022/08/24 09:54:02;;;;;;;14.07;8.63;;;;;;;;;;4952787;29;20097;-76
2022/08/24 09:56:55;;;;;;;9.80;7.63;;;;;;;;;;4955333;29;20035;-75
2022/08/24 09:59:33;;;;;;;12.30;9.57;;;;;;;;;;4955479;29;20054;-78
2022/08/24 10:02:20;;;;;;;11.23;8.90;;;;;;;;;;4953835;29;20037;-79
2022/08/24 10:04:58;;;;;;;9.45;7.72;;;;;;;;;;4941509;28;20024;-79
2022/08/24 10:08:32;;;;;;;9.18;6.93;;;;;;;;;;4951631;29;20070;-78
2022/08/24 10:11:09;;;;;;;9.60;6.32;;;;;;;;;;4850255;29;20055;-76
2022/08/24 10:14:04;;;;;;;9.02;6.68;;;;;;;;;;4896957;29;20606;-76
2022/08/24 10:16:57;;;;;;;8.50;5.78;;;;;;;;;;4899215;29;20508;-76
2022/08/24 10:19:50;;;;;;;14.23;7.70;;;;;;;;;;4943026;29;20406;-76
2022/08/24 10:22:31;;;;;;;10.90;5.20;;;;;;;;;;4956135;29;20043;-76
2022/08/24 10:25:08;;;;;;;7.95;4.80;;;;;;;;;;4956420;28;20070;-77
2022/08/24 10:27:59;;;;;;;7.00;5.65;;;;;;;;;;4956774;29;20072;-76
2022/08/24 10:30:44;;;;;;;10.95;5.40;;;;;;;;;;4953059;29;20085;-75
2022/08/24 10:33:23;;;;;;;6.85;5.78;;;;;;;;;;4956559;29;20035;-75
2022/08/24 10:36:29;;;;;;;8.02;5.50;;;;;;;;;;4923298;29;20050;-76
2022/08/24 10:45:40;;;;;;;9.73;5.70;;;;;;;;;;4956836;29;20035;-75
2022/08/24 10:48:30;;;;;;;7.35;5.10;;;;;;;;;;4955727;29;20067;-78
2022/08/24 10:50:56;;;;;;;6.45;5.00;;;;;;;;;;4955940;29;20110;-74
2022/08/24 10:53:26;;;;;;;9.68;5.60;;;;;;;;;;4956453;29;20055;-77
2022/08/24 10:56:13;;;;;;;12.75;6.30;;;;;;;;;;4956516;29;20043;-77
2022/08/24 10:58:43;;;;;;;8.13;5.75;;;;;;;;;;4954738;28;20047;-78
2022/08/24 11:01:17;;;;;;;9.18;5.40;;;;;;;;;;4953311;28;20054;-78
2022/08/24 11:03:55;;;;;;;11.13;6.15;;;;;;;;;;4954707;29;20463;-79
2022/08/24 11:06:23;;;;;;;8.40;6.03;;;;;;;;;;4954387;29;20078;-78
2022/08/24 11:09:07;;;;;;;11.02;6.20;;;;;;;;;;4954563;29;20106;-76
2022/08/24 11:11:41;;;;;;;6.97;5.40;;;;;;;;;;4954474;29;20027;-81
2022/08/24 11:14:23;;;;;;;7.70;5.93;;;;;;;;;;4936660;29;20049;-78
2022/08/24 11:16:49;;;;;;;10.15;7.40;;;;;;;;;;4954250;29;20106;-79
2022/08/24 11:19:27;;;;;;;7.03;5.88;;;;;;;;;;4937034;29;20033;-79
2022/08/24 11:21:56;;;;;;;8.82;5.65;;;;;;;;;;4954269;29;20031;-77
2022/08/24 11:24:23;;;;;;;7.63;5.72;;;;;;;;;;4954153;28;20023;-78
2022/08/24 11:27:05;;;;;;;10.55;6.43;;;;;;;;;;4954359;29;20035;-79
2022/08/24 11:29:48;;;;;;;7.25;5.57;;;;;;;;;;4956384;29;20090;-80
2022/08/24 11:32:32;;;;;;;7.28;6.22;;;;;;;;;;4956376;29;20031;-80
2022/08/24 11:35:40;;;;;;;8.27;6.07;;;;;;;;;;4956490;29;20035;-79
2022/08/24 11:38:19;;;;;;;7.47;5.88;;;;;;;;;;4955858;29;20522;-78
2022/08/24 11:41:09;;;;;;;9.02;6.32;;;;;;;;;;4956177;29;20038;-79
2022/08/24 11:44:19;;;;;;;7.47;6.22;;;;;;;;;;4956176;29;20477;-80
2022/08/24 11:47:15;;;;;;;7.70;5.88;;;;;;;;;;4923978;29;20129;-78
2022/08/24 11:49:53;;;;;;;7.70;6.13;;;;;;;;;;4939197;29;20031;-78
2022/08/24 11:52:44;;;;;;;9.70;5.85;;;;;;;;;;4956059;29;20027;-78
2022/08/24 11:55:26;;;;;;;9.50;6.13;;;;;;;;;;4955705;29;20031;-79
2022/08/24 11:57:55;;;;;;;9.35;6.47;;;;;;;;;;4938497;29;20498;-79
2022/08/24 12:00:29;;;;;;;9.63;5.82;;;;;;;;;;4955993;29;20062;-79
2022/08/24 12:02:55;;;;;;;8.48;6.13;;;;;;;;;;4955792;29;20045;-77
2022/08/24 12:05:38;;;;;;;9.85;6.25;;;;;;;;;;4938442;29;20031;-80
2022/08/24 12:08:13;;;;;;;;;;;;;;;;;;4956135;29;20050;-79
2022/08/24 12:10:58;;;;;;;8.63;6.43;;;;;;;;;;4955649;28;20242;-78
2022/08/24 12:13:56;;;;;;;8.60;6.93;;;;;;;;;;4955153;29;20507;-78
2022/08/24 12:16:32;;;;;;;6.80;5.65;;;;;;;;;;4923505;29;20118;-79
2022/08/24 12:19:08;;;;;;;8.75;6.72;;;;;;;;;;4955865;29;20046;-80
2022/08/24 12:21:38;;;;;;;10.65;7.18;;;;;;;;;;4955669;29;20067;-80
2022/08/24 12:24:11;;;;;;;8.98;6.45;;;;;;;;;;4955496;29;20471;-79
2022/08/24 12:26:51;;;;;;;6.88;5.97;;;;;;;;;;4955466;29;20035;-79
2022/08/24 12:29:27;;;;;;;9.85;6.95;;;;;;;;;;4955362;29;20394;-79
2022/08/24 12:32:09;;;;;;;9.02;6.30;;;;;;;;;;4938478;29;20118;-78
2022/08/24 12:34:47;;;;;;;7.60;5.85;;;;;;;;;;4956316;29;20058;-76
2022/08/24 12:37:34;;;;;;;8.13;6.30;;;;;;;;;;4956079;29;20050;-77
2022/08/24 12:40:35;;;;;;;10.60;7.45;;;;;;;;;;4955332;29;20035;-77
2022/08/24 12:43:34;;;;;;;11.23;7.95;;;;;;;;;;4895905;29;20114;-79
2022/08/24 12:46:02;;;;;;;11.52;8.73;;;;;;;;;;4873271;29;20084;-77
2022/08/24 12:48:45;;;;;;;11.93;8.93;;;;;;;;;;4954648;28;20035;-77
2022/08/24 12:51:33;;;;;;;11.50;9.35;;;;;;;;;;4935332;29;20122;-76
2022/08/24 12:54:08;;;;;;;10.20;8.73;;;;;;;;;;4929923;29;20478;-76
2022/08/24 12:56:36;;;;;;;13.05;9.95;;;;;;;;;;4954625;29;20367;-76
2022/08/24 12:59:11;;;;;;;10.50;8.73;;;;;;;;;;4937149;29;20082;-77
2022/08/24 13:01:44;;;;;;;11.95;8.23;;;;;;;;;;4954620;29;20031;-77
2022/08/24 13:04:36;;;;;;;13.57;8.20;;;;;;;;;;4954568;28;20066;-78
2022/08/24 13:07:25;;;;;;;9.95;8.30;;;;;;;;;;4944503;29;20050;-79
2022/08/24 13:09:56;;;;;;;13.30;8.32;;;;;;;;;;4954902;29;20102;-79
2022/08/24 13:12:37;;;;;;;11.02;8.00;;;;;;;;;;4954555;29;20424;-77
2022/08/24 13:15:22;;;;;;;15.95;9.13;;;;;;;;;;4954879;28;20058;-80
2022/08/24 13:18:14;;;;;;;9.15;7.30;;;;;;;;;;4954363;29;20460;-77
2022/08/24 13:20:43;;;;;;;9.77;7.00;;;;;;;;;;4924776;29;20177;-77
2022/08/24 13:23:14;;;;;;;12.18;7.10;;;;;;;;;;4953904;28;20156;-78
2022/08/24 13:25:46;;;;;;;10.23;7.82;;;;;;;;;;4952578;29;20049;-80
2022/08/24 13:28:24;;;;;;;9.25;7.25;;;;;;;;;;4953025;28;20038;-79
2022/08/24 13:30:55;;;;;;;9.48;7.10;;;;;;;;;;4954988;29;20090;-80
2022/08/24 13:33:36;;;;;;;8.95;7.10;;;;;;;;;;4954819;28;20035;-79
2022/08/24 13:36:08;;;;;;;9.65;7.50;;;;;;;;;;4954796;29;20039;-77
2022/08/24 13:38:33;;;;;;;9.40;8.40;;;;;;;;;;4954495;28;20039;-79
2022/08/24 13:41:25;;;;;;;8.68;6.90;;;;;;;;;;4954755;28;20030;-77
2022/08/24 13:44:09;;;;;;;8.20;6.45;;;;;;;;;;4954123;28;20222;-78
2022/08/24 13:47:09;;;;;;;8.35;6.65;;;;;;;;;;4954808;28;20045;-79
2022/08/24 13:50:19;;;;;;;8.75;6.63;;;;;;;;;;4959623;28;20039;-78
2022/08/24 13:52:56;;;;;;;8.70;6.90;;;;;;;;;;4925114;29;20088;-78
2022/08/24 13:55:42;;;;;;;10.70;6.43;;;;;;;;;;4935440;29;20087;-79
2022/08/24 13:58:21;;;;;;;9.43;7.07;;;;;;;;;;4935314;29;20055;-79
2022/08/24 14:01:17;;;;;;;8.73;6.82;;;;;;;;;;4935268;29;20032;-78
2022/08/24 14:03:59;;;;;;;13.13;7.72;;;;;;;;;;4935260;29;20227;-77
2022/08/24 14:06:59;;;;;;;8.95;7.35;;;;;;;;;;4935485;29;20038;-81
2022/08/24 14:09:53;;;;;;;12.93;7.30;;;;;;;;;;4935291;29;20043;-78
2022/08/24 14:12:29;;;;;;;8.35;6.63;;;;;;;;;;4918590;29;20039;-78
2022/08/24 14:15:30;;;;;;;8.73;6.43;;;;;;;;;;4935736;29;20067;-77
2022/08/24 14:18:07;;;;;;;7.43;5.38;;;;;;;;;;4876368;29;20473;-82
2022/08/24 14:20:51;;;;;;;9.45;6.18;;;;;;;;;;4927575;29;20043;-80
2022/08/24 14:23:51;;;;;;;7.43;6.03;;;;;;;;;;4935286;29;20036;-78
2022/08/24 14:26:42;;;;;;;7.43;5.47;;;;;;;;;;4935179;29;20499;-79
2022/08/24 14:29:30;;;;;;;5.72;5.10;;;;;;;;;;4917939;29;20032;-80
2022/08/24 14:31:58;;;;;;;6.70;5.68;;;;;;;;;;4934734;29;20035;-77
2022/08/24 14:34:24;;;;;;;7.10;5.53;;;;;;;;;;4934835;29;20452;-79
2022/08/24 14:37:17;;;;;;;7.70;5.00;;;;;;;;;;4938598;29;20039;-82
2022/08/24 14:40:11;;;;;;;5.90;4.38;;;;;;;;;;4938377;29;20043;-77
2022/08/24 14:43:13;;;;;;;7.63;4.60;;;;;;;;;;4938230;29;20028;-77
2022/08/24 14:45:50;;;;;;;6.72;4.65;;;;;;;;;;4938664;29;20507;-78
2022/08/24 14:48:45;;;;;;;4.63;3.90;;;;;;;;;;4938227;29;20038;-78
2022/08/24 14:51:25;;;;;;;6.70;4.80;;;;;;;;;;4938138;29;20036;-77
2022/08/24 14:54:15;;;;;;;6.15;4.80;;;;;;;;;;4921062;29;20036;-78
2022/08/24 14:57:02;;;;;;;6.13;4.60;;;;;;;;;;4920899;29;20043;-78
2022/08/24 14:59:44;;;;;;;7.85;3.83;;;;;;;;;;4938412;29;20040;-78
2022/08/24 15:02:16;;;;;;;4.70;3.70;;;;;;;;;;4937820;29;20067;-77
2022/08/24 15:04:45;;;;;;;5.32;3.78;;;;;;;;;;4937854;29;20102;-77
2022/08/24 15:07:35;;;;;;;6.38;3.97;;;;;;;;;;4920590;29;20036;-76
2022/08/24 15:10:11;;;;;;;5.30;3.88;;;;;;;;;;4949349;29;20035;-79
2022/08/24 15:12:50;;;;;;;6.22;4.00;;;;;;;;;;4956737;29;20445;-79
2022/08/24 15:15:54;;;;;;;7.68;3.90;;;;;;;;;;4955917;29;20042;-75
2022/08/24 15:18:42;;;;;;;7.63;4.10;;;;;;;;;;4956792;29;20490;-78
2022/08/24 15:21:13;;;;;;;5.03;3.80;;;;;;;;;;4956411;29;20046;-78
2022/08/24 15:24:14;;;;;;;5.75;3.53;;;;;;;;;;4956048;29;20363;-78
2022/08/24 15:27:02;;;;;;;6.43;4.05;;;;;;;;;;4956196;29;20490;-77
2022/08/24 15:29:31;;;;;;;5.30;3.70;;;;;;;;;;4937146;29;20039;-77
2022/08/24 15:32:00;;;;;;;4.65;3.75;;;;;;;;;;4935343;29;20159;-77
2022/08/24 15:34:44;;;;;;;5.28;4.10;;;;;;;;;;4936949;29;20036;-77
2022/08/24 15:37:23;;;;;;;7.93;4.80;;;;;;;;;;4937060;29;20086;-78
2022/08/24 15:39:49;;;;;;;5.63;4.00;;;;;;;;;;4938996;29;20024;-77
2022/08/24 15:42:15;;;;;;;6.78;3.75;;;;;;;;;;4938760;29;20030;-76